Charter Quote
Worldwide +1-877-727-2538 Call
Select Language Lang
SAFETY RELIABILITY EXPERIENCE

Private Jet Charter Services - Wanxian Airport (ZUWX)

Paramount Business Jets offers private jet charter flights and luxury airliner charters to and from Wanxian Airport.

AIRPORT INFORMATION
ICAOZUWX
LOCATIONWanxian, China
FACILITY TYPEAIRPORT

At Paramount Business Jets you can hire chartered private jets to and from Wanxian Airport with as little as 4 hours of notice. All flights booked via Paramount Business Jets are operated by certified direct air carriers that meet and exceed the FAA part 135 and 121 protocol or a foreign equivalent safety authority. Furthermore, Paramount Business Jets subscribes to ARGUS for their third party safety checks of operators, aircraft, and crews prior each and every flight to and from Wanxian Airport and worldwide.

  • Quote a trip using Wanxian Airport or call us 24/7 - 365 days a year at +1-877-727-2538.
Questions? Call +1-877-727-2538

METAR Weather Data at Wanxian Airport, ZUWX

STATIONZUWX
OBSERVEDMon Aug 12, 10:00 UTC
NOWMon Jul 22, 09:36 UTC
AGE52079:36 hr ago
WINDSW at 9 mph
VISIBILITY16 miles
CONDITIONSthunderstorm
CLOUDSpartly cloudy
TEMP79°F (26°C)
DEWPT68°F (20°C)
HUMIDITY70%
BAROMETER1006 hPa (29.71 in Hg)
METARZUWX 121000Z 22004MPS 180V280 9999 TS FEW030CB 26/20 Q1006 NOSIG

Call us on +1-877-727-2538 (24 Hours) to Hire a Private Jet or Get a Quick Quote.

Find Airports Near any Location

Processing
...